Terminal Aerodrome Forecast
Issued by NWS Salt Lake City, UT

Home | Current Version | Previous Version | Text Only | Print | Product List | Glossary On
Versions: 1 2 3 4 5 6 7 8 9 10 11 12 13 14
000
FTUS45 KSLC 041120
TAFCDC
TAF
KCDC 041120Z 0412/0512 14005KT P6SM SKC
     FM041700 19012G22KT P6SM SKC
     FM042000 20016G26KT P6SM SKC
     FM050200 17008KT P6SM FEW200=

USA.gov is the U.S. government's official web portal to all federal, state and local government web resources and services.